createdAt,value
2023-04-02T00:01:08.938Z,101022.53
2023-04-02T00:03:55.089Z,101023.41
2023-04-02T00:06:41.526Z,101022.41
2023-04-02T00:09:17.071Z,101021.56
2023-04-02T00:11:52.328Z,101032.97
2023-04-02T00:14:29.368Z,101032.13
2023-04-02T00:17:01.035Z,101028.75
2023-04-02T00:19:52.049Z,101032.97
2023-04-02T00:22:23.871Z,101033.97
2023-04-02T00:24:58.564Z,101027.75
2023-04-02T00:27:28.290Z,101038.22
2023-04-02T00:30:01.575Z,101027.91
2023-04-02T00:32:43.166Z,101044.44
2023-04-02T00:35:20.417Z,101033.81
2023-04-02T00:37:52.027Z,101039.91
2023-04-02T00:40:44.632Z,101041.66
2023-04-02T00:43:18.292Z,101041.00
2023-04-02T00:45:55.332Z,101033.72
2023-04-02T00:48:43.001Z,101032.66
2023-04-02T00:51:43.316Z,101034.34
2023-04-02T00:54:17.940Z,101017.56
2023-04-02T00:56:52.351Z,101025.34
2023-04-02T00:59:30.733Z,101030.59
2023-04-02T01:02:23.983Z,101029.84
2023-04-02T01:05:07.141Z,101022.56
2023-04-02T01:08:01.818Z,101022.41
2023-04-02T01:11:02.036Z,101025.09
2023-04-02T01:13:55.147Z,101015.25
2023-04-02T01:16:34.488Z,101017.91
2023-04-02T01:19:31.060Z,101018.50
2023-04-02T01:22:36.646Z,100992.38
2023-04-02T01:25:05.926Z,101014.00
2023-04-02T01:27:43.460Z,101010.34
2023-04-02T01:30:14.420Z,101004.03
2023-04-02T01:32:45.420Z,101010.34
2023-04-02T01:35:18.484Z,101001.47
2023-04-02T01:38:12.008Z,100996.94
2023-04-02T01:40:55.067Z,101006.56
2023-04-02T01:43:48.801Z,100985.63
2023-04-02T01:46:36.561Z,100989.66
2023-04-02T01:49:18.302Z,100988.81
2023-04-02T01:51:54.591Z,100986.84
2023-04-02T01:54:25.798Z,100988.91
2023-04-02T01:56:57.972Z,100991.09
2023-04-02T01:59:31.231Z,100976.13
2023-04-02T02:02:19.246Z,100980.41
2023-04-02T02:04:48.983Z,100990.00
2023-04-02T02:07:20.876Z,100976.41
2023-04-02T02:09:51.879Z,100989.03
2023-04-02T02:12:21.627Z,100988.88
2023-04-02T02:14:57.566Z,100981.84
2023-04-02T02:17:35.194Z,100985.25
2023-04-02T02:20:10.765Z,100977.31
2023-04-02T02:22:48.404Z,100979.75
2023-04-02T02:25:24.051Z,100968.34
2023-04-02T02:27:53.649Z,100973.41
2023-04-02T02:30:36.795Z,100972.47
2023-04-02T02:33:20.233Z,100958.78
2023-04-02T02:35:59.118Z,100950.75
2023-04-02T02:38:45.157Z,100949.06
2023-04-02T02:41:30.618Z,100953.44
2023-04-02T02:44:03.319Z,100939.94
2023-04-02T02:46:34.812Z,100943.69
2023-04-02T02:49:06.187Z,100940.78
2023-04-02T02:52:12.042Z,100923.50
2023-04-02T02:54:49.121Z,100931.41
2023-04-02T02:57:28.030Z,100931.75
2023-04-02T03:00:01.871Z,100913.84
2023-04-02T03:02:32.730Z,100910.22
2023-04-02T03:05:07.210Z,100898.50
2023-04-02T03:07:38.830Z,100895.09
2023-04-02T03:10:48.425Z,100894.25
2023-04-02T03:13:26.466Z,100900.19
2023-04-02T03:16:14.386Z,100901.03
2023-04-02T03:18:53.868Z,100898.50
2023-04-02T03:21:44.715Z,100892.56
2023-04-02T03:24:29.629Z,100888.63
2023-04-02T03:27:07.300Z,100883.88
2023-04-02T03:29:51.523Z,100876.94
2023-04-02T03:32:32.930Z,100871.47
2023-04-02T03:35:24.507Z,100881.91
2023-04-02T03:38:01.416Z,100858.47
2023-04-02T03:40:37.376Z,100869.47
2023-04-02T03:43:29.721Z,100863.88
2023-04-02T03:46:30.297Z,100859.75
2023-04-02T03:49:27.493Z,100871.66
2023-04-02T03:52:09.287Z,100865.56
2023-04-02T03:54:39.517Z,100854.00
2023-04-02T03:57:20.832Z,100850.34
2023-04-02T04:00:06.677Z,100845.97
2023-04-02T04:02:59.038Z,100841.34
2023-04-02T04:05:32.893Z,100843.03
2023-04-02T04:08:10.010Z,100842.88
2023-04-02T04:10:39.704Z,100843.88
2023-04-02T04:13:15.860Z,100831.47
2023-04-02T04:15:48.431Z,100827.53
2023-04-02T04:18:42.092Z,100821.31
2023-04-02T04:21:39.358Z,100824.72
2023-04-02T04:24:38.081Z,100812.31
2023-04-02T04:27:37.881Z,100811.31
2023-04-02T04:30:49.171Z,100815.72
2023-04-02T04:33:26.376Z,100812.03
2023-04-02T04:36:01.329Z,100797.91
2023-04-02T04:38:57.108Z,100797.66
2023-04-02T04:41:30.524Z,100795.81
2023-04-02T04:44:07.792Z,100794.84
2023-04-02T04:46:52.131Z,100791.03
2023-04-02T04:49:46.634Z,100782.31
2023-04-02T04:52:18.700Z,100770.59
2023-04-02T04:54:54.557Z,100767.75
2023-04-02T04:57:33.239Z,100766.81
2023-04-02T05:00:45.080Z,100760.59
2023-04-02T05:04:11.281Z,100760.59
2023-04-02T05:06:58.745Z,100759.47
2023-04-02T05:09:42.364Z,100750.56
2023-04-02T05:12:26.782Z,100763.97
2023-04-02T05:15:29.594Z,100756.66
2023-04-02T05:18:17.405Z,100753.16
2023-04-02T05:21:02.560Z,100746.31
2023-04-02T05:23:37.744Z,100740.97
2023-04-02T05:26:13.346Z,100745.78
2023-04-02T05:28:48.258Z,100740.44
2023-04-02T05:31:44.717Z,100744.97
2023-04-02T05:34:18.226Z,100742.44
2023-04-02T05:36:48.776Z,100735.34
2023-04-02T05:39:28.449Z,100749.31
2023-04-02T05:42:22.919Z,100734.94
2023-04-02T05:45:07.404Z,100741.00
2023-04-02T05:47:44.846Z,100733.13
2023-04-02T05:50:32.202Z,100733.69
2023-04-02T05:53:18.904Z,100732.81
2023-04-02T05:56:13.009Z,100732.72
2023-04-02T05:58:48.739Z,100715.91
2023-04-02T06:01:24.532Z,100706.91
2023-04-02T06:03:56.618Z,100706.03
2023-04-02T06:06:47.557Z,100708.59
2023-04-02T06:09:39.483Z,100704.06
2023-04-02T06:12:30.306Z,100692.50
2023-04-02T06:15:00.321Z,100703.22
2023-04-02T06:17:33.139Z,100692.94
2023-04-02T06:20:04.777Z,100698.97
2023-04-02T06:22:39.343Z,100699.56
2023-04-02T06:25:23.164Z,100689.09
2023-04-02T06:27:54.209Z,100682.06
2023-04-02T06:30:37.823Z,100669.06
2023-04-02T06:33:11.038Z,100663.81
2023-04-02T06:35:44.661Z,100663.81
2023-04-02T06:38:27.097Z,100668.06
2023-04-02T06:41:02.527Z,100669.75
2023-04-02T06:43:40.486Z,100667.97
2023-04-02T06:46:24.292Z,100662.03
2023-04-02T06:48:57.734Z,100648.19
2023-04-02T06:51:28.933Z,100652.88
2023-04-02T06:54:01.304Z,100644.38
2023-04-02T06:56:46.020Z,100639.91
2023-04-02T06:59:20.107Z,100640.59
2023-04-02T07:01:55.961Z,100652.72
2023-04-02T07:04:26.050Z,100645.69
2023-04-02T07:06:57.268Z,100641.31
2023-04-02T07:09:27.485Z,100636.78
2023-04-02T07:12:00.124Z,100642.28
2023-04-02T07:14:29.863Z,100645.69
2023-04-02T07:17:05.913Z,100637.47
2023-04-02T07:19:35.777Z,100637.78
2023-04-02T07:22:07.438Z,100645.53
2023-04-02T07:24:39.795Z,100660.75
2023-04-02T07:27:12.216Z,100652.72
2023-04-02T07:29:44.401Z,100638.06
2023-04-02T07:32:17.210Z,100650.88
2023-04-02T07:34:47.591Z,100655.41
2023-04-02T07:37:17.325Z,100655.56
2023-04-02T07:39:47.100Z,100651.88
2023-04-02T07:42:16.901Z,100644.38
2023-04-02T07:44:46.476Z,100653.00
2023-04-02T07:47:19.447Z,100641.69
2023-04-02T07:49:59.800Z,100653.00
2023-04-02T07:52:35.069Z,100652.31
2023-04-02T07:55:05.617Z,100660.19
2023-04-02T07:57:46.386Z,100657.22
2023-04-02T08:00:20.718Z,100660.34
2023-04-02T08:02:55.959Z,100651.00
2023-04-02T08:05:25.028Z,100663.13
2023-04-02T08:07:58.832Z,100673.84
2023-04-02T08:10:28.658Z,100671.34
2023-04-02T08:13:00.994Z,100678.38
2023-04-02T08:15:33.750Z,100666.13
2023-04-02T08:18:03.808Z,100667.94
2023-04-02T08:20:33.709Z,100675.28
2023-04-02T08:23:06.015Z,100681.31
2023-04-02T08:25:36.073Z,100674.84
2023-04-02T08:28:05.992Z,100676.25
2023-04-02T08:30:37.045Z,100688.09
2023-04-02T08:33:08.120Z,100687.25
2023-04-02T08:35:41.155Z,100682.00
2023-04-02T08:38:11.622Z,100699.53
2023-04-02T08:40:47.549Z,100692.47
2023-04-02T08:43:35.181Z,100703.19
2023-04-02T08:46:04.836Z,100707.69
2023-04-02T08:48:42.479Z,100701.75
2023-04-02T08:51:36.836Z,100699.94
2023-04-02T08:54:21.592Z,100706.13
2023-04-02T08:57:34.948Z,100697.25
2023-04-02T09:00:29.456Z,100704.44
2023-04-02T09:03:06.564Z,100706.28
2023-04-02T09:05:39.425Z,100709.09
2023-04-02T09:08:28.856Z,100716.16
2023-04-02T09:11:05.158Z,100725.19
2023-04-02T09:13:39.073Z,100715.56
2023-04-02T09:16:19.022Z,100727.28
2023-04-02T09:18:52.721Z,100722.88
2023-04-02T09:21:36.106Z,100721.19
2023-04-02T09:24:08.919Z,100719.50
2023-04-02T09:26:47.474Z,100723.28
2023-04-02T09:29:36.918Z,100725.88
2023-04-02T09:32:39.969Z,100732.19
2023-04-02T09:35:24.709Z,100718.09
2023-04-02T09:38:23.062Z,100729.66
2023-04-02T09:41:11.340Z,100743.19
2023-04-02T09:43:46.792Z,100746.97
2023-04-02T09:46:20.023Z,100750.50
2023-04-02T09:49:06.994Z,100754.44
2023-04-02T09:51:38.047Z,100753.59
2023-04-02T09:54:15.859Z,100759.06
2023-04-02T09:57:05.000Z,100763.72
2023-04-02T09:59:43.938Z,100755.94
2023-04-02T10:02:31.456Z,100767.66
2023-04-02T10:05:06.209Z,100770.59
2023-04-02T10:07:39.986Z,100775.94
2023-04-02T10:10:32.820Z,100778.72
2023-04-02T10:13:10.388Z,100784.22
2023-04-02T10:16:00.579Z,100779.97
2023-04-02T10:18:36.171Z,100790.69
2023-04-02T10:21:07.927Z,100793.50
2023-04-02T10:23:37.848Z,100796.34
2023-04-02T10:26:25.862Z,100799.13
2023-04-02T10:29:10.085Z,100794.31
2023-04-02T10:32:01.013Z,100803.78
2023-04-02T10:35:05.098Z,100809.41
2023-04-02T10:38:02.758Z,100809.50
2023-04-02T10:41:06.649Z,100816.00
2023-04-02T10:43:54.404Z,100816.00
2023-04-02T10:46:56.898Z,100809.91
2023-04-02T10:49:44.232Z,100818.06
2023-04-02T10:52:36.674Z,100817.09
2023-04-02T10:55:25.111Z,100826.97
2023-04-02T10:57:56.304Z,100839.59
2023-04-02T11:00:30.974Z,100841.34
2023-04-02T11:03:10.935Z,100837.44
2023-04-02T11:05:56.936Z,100848.88
2023-04-02T11:08:35.890Z,100859.47
2023-04-02T11:11:16.778Z,100855.09
2023-04-02T11:13:52.228Z,100851.66
2023-04-02T11:16:25.200Z,100853.75
2023-04-02T11:19:22.064Z,100861.53
2023-04-02T11:21:59.340Z,100863.47
2023-04-02T11:24:38.391Z,100864.31
2023-04-02T11:27:25.995Z,100867.13
2023-04-02T11:30:07.020Z,100882.34
2023-04-02T11:32:40.790Z,100878.09
2023-04-02T11:35:35.205Z,100883.34
2023-04-02T11:38:14.373Z,100887.09
2023-04-02T11:40:46.540Z,100891.63
2023-04-02T11:43:39.280Z,100892.72
2023-04-02T11:46:28.931Z,100902.44
2023-04-02T11:49:44.063Z,100900.88
2023-04-02T11:52:25.212Z,100905.50
2023-04-02T11:55:17.397Z,100905.50
2023-04-02T11:58:13.046Z,100917.19
2023-04-02T12:01:20.436Z,100922.53
2023-04-02T12:04:28.170Z,100935.19
2023-04-02T12:07:21.555Z,100930.94
2023-04-02T12:09:59.531Z,100938.00
2023-04-02T12:12:39.449Z,100938.00
2023-04-02T12:15:28.902Z,100944.44
2023-04-02T12:18:17.783Z,100948.25
2023-04-02T12:20:58.365Z,100954.28
2023-04-02T12:23:39.974Z,100953.59
2023-04-02T12:26:47.846Z,100974.88
2023-04-02T12:29:30.979Z,100972.31
2023-04-02T12:32:01.415Z,100985.72
2023-04-02T12:34:32.281Z,100982.28
2023-04-02T12:37:07.340Z,100986.66
2023-04-02T12:39:37.590Z,100986.06
2023-04-02T12:42:07.777Z,100974.75
2023-04-02T12:44:37.453Z,100986.91
2023-04-02T12:47:07.706Z,100997.59
2023-04-02T12:49:43.717Z,101002.25
2023-04-02T12:52:16.047Z,101002.09
2023-04-02T12:54:57.119Z,101003.31
2023-04-02T12:57:32.448Z,101007.47
2023-04-02T13:00:19.270Z,100999.81
2023-04-02T13:03:10.579Z,101015.63
2023-04-02T13:05:59.557Z,101019.38
2023-04-02T13:08:37.537Z,101022.06
2023-04-02T13:11:07.850Z,101030.09
2023-04-02T13:13:46.091Z,101041.53
2023-04-02T13:16:21.494Z,101041.63
2023-04-02T13:18:52.220Z,101044.59
2023-04-02T13:21:26.648Z,101046.16
2023-04-02T13:24:00.008Z,101043.59
2023-04-02T13:26:33.003Z,101051.63
2023-04-02T13:29:24.896Z,101048.22
2023-04-02T13:31:58.839Z,101052.00
2023-04-02T13:34:28.747Z,101046.66
2023-04-02T13:37:01.905Z,101051.25
2023-04-02T13:39:32.032Z,101054.91
2023-04-02T13:42:08.036Z,101059.16
2023-04-02T13:44:39.184Z,101056.59
2023-04-02T13:47:08.994Z,101049.06
2023-04-02T13:49:38.785Z,101055.28
2023-04-02T13:52:12.220Z,101057.06
2023-04-02T13:54:51.275Z,101062.09
2023-04-02T13:57:21.091Z,101049.31
2023-04-02T13:59:53.370Z,101060.50
2023-04-02T14:02:28.968Z,101054.31
2023-04-02T14:05:07.973Z,101056.84
2023-04-02T14:08:03.509Z,101057.97
2023-04-02T14:10:42.437Z,101056.97
2023-04-02T14:13:32.806Z,101054.53
2023-04-02T14:16:32.900Z,101063.31
2023-04-02T14:19:36.292Z,101056.47
2023-04-02T14:22:18.701Z,101073.13
2023-04-02T14:24:57.114Z,101073.25
2023-04-02T14:27:50.779Z,101072.41
2023-04-02T14:30:24.903Z,101065.22
2023-04-02T14:33:06.578Z,101072.50
2023-04-02T14:35:40.940Z,101067.16
2023-04-02T14:38:29.622Z,101057.69
2023-04-02T14:41:07.723Z,101062.09
2023-04-02T14:43:47.964Z,101074.47
2023-04-02T14:46:18.193Z,101061.19
2023-04-02T14:49:21.043Z,101056.13
2023-04-02T14:52:04.812Z,101072.78
2023-04-02T14:54:38.918Z,101060.50
2023-04-02T14:57:25.698Z,101069.34
2023-04-02T14:59:58.135Z,101079.09
2023-04-02T15:02:52.421Z,101076.53
2023-04-02T15:05:45.864Z,101071.31
2023-04-02T15:08:39.664Z,101075.78
2023-04-02T15:11:47.574Z,101075.78
2023-04-02T15:14:44.922Z,101087.38
2023-04-02T15:17:15.068Z,101082.25
2023-04-02T15:19:45.437Z,101072.75
2023-04-02T15:23:00.311Z,101086.75
2023-04-02T15:26:19.226Z,101063.28
2023-04-02T15:29:33.153Z,101073.72
2023-04-02T15:32:28.256Z,101071.03
2023-04-02T15:35:26.258Z,101096.84
2023-04-02T15:38:17.034Z,101086.13
2023-04-02T15:40:57.313Z,101086.13
2023-04-02T15:43:47.610Z,101089.75
2023-04-02T15:46:32.504Z,101101.44
2023-04-02T15:49:01.573Z,101110.31
2023-04-02T15:51:52.508Z,101110.31
2023-04-02T15:54:28.472Z,101106.91
2023-04-02T15:57:18.538Z,101098.03
2023-04-02T16:00:03.806Z,101095.47
2023-04-02T16:02:42.289Z,101086.81
2023-04-02T16:05:48.472Z,101097.28
2023-04-02T16:08:23.470Z,101094.75
2023-04-02T16:10:55.743Z,101106.28
2023-04-02T16:13:37.368Z,101102.03
2023-04-02T16:16:22.631Z,101112.59
2023-04-02T16:19:28.600Z,101111.75
2023-04-02T16:22:17.218Z,101115.25
2023-04-02T16:24:48.335Z,101106.75
2023-04-02T16:27:29.587Z,101130.59
2023-04-02T16:30:17.768Z,101122.69
2023-04-02T16:32:55.968Z,101123.66
2023-04-02T16:38:30.982Z,101133.50
2023-04-02T16:41:44.369Z,101129.13
2023-04-02T16:44:35.244Z,101121.09
2023-04-02T16:47:41.592Z,101125.69
2023-04-02T16:50:32.688Z,101131.19
2023-04-02T16:53:47.808Z,101126.69
2023-04-02T16:57:00.603Z,101125.22
2023-04-02T16:59:45.574Z,101132.25
2023-04-02T17:02:23.832Z,101126.06
2023-04-02T17:05:24.860Z,101126.28
2023-04-02T17:08:15.209Z,101123.75
2023-04-02T17:11:04.421Z,101118.59
2023-04-02T17:13:47.619Z,101125.53
2023-04-02T17:16:24.327Z,101118.38
2023-04-02T17:19:00.625Z,101120.28
2023-04-02T17:21:34.440Z,101123.09
2023-04-02T17:24:18.855Z,101113.22
2023-04-02T17:26:53.953Z,101108.72
2023-04-02T17:29:37.610Z,101101.81
2023-04-02T17:32:20.023Z,101099.25
2023-04-02T17:34:52.909Z,101093.75
2023-04-02T17:37:41.158Z,101111.75
2023-04-02T17:40:35.201Z,101110.06
2023-04-02T17:43:10.488Z,101102.91
2023-04-02T17:46:06.828Z,101104.81
2023-04-02T17:48:44.021Z,101103.13
2023-04-02T17:51:33.563Z,101102.28
2023-04-02T17:54:17.424Z,101103.13
2023-04-02T17:57:09.373Z,101105.94
2023-04-02T17:59:44.731Z,101103.25
2023-04-02T18:02:32.573Z,101104.09
2023-04-02T18:05:34.909Z,101104.31
2023-04-02T18:08:25.708Z,101107.97
2023-04-02T18:11:10.341Z,101099.34
2023-04-02T18:13:53.589Z,101112.47
2023-04-02T18:16:50.488Z,101106.25
2023-04-02T18:19:40.320Z,101124.00
2023-04-02T18:22:19.062Z,101120.50
2023-04-02T18:25:21.510Z,101115.38
2023-04-02T18:28:13.060Z,101117.06
2023-04-02T18:30:54.369Z,101123.59
2023-04-02T18:33:48.223Z,101127.75
2023-04-02T18:36:52.602Z,101135.03
2023-04-02T18:39:42.158Z,101132.25
2023-04-02T18:42:35.892Z,101135.78
2023-04-02T18:45:23.637Z,101138.56
2023-04-02T18:48:00.787Z,101145.84
2023-04-02T18:50:40.489Z,101132.81
2023-04-02T18:53:21.955Z,101132.19
2023-04-02T18:55:59.939Z,101155.91
2023-04-02T18:58:51.421Z,101158.44
2023-04-02T19:01:29.959Z,101154.19
2023-04-02T19:04:05.176Z,101168.53
2023-04-02T19:06:52.531Z,101171.94
2023-04-02T19:09:38.121Z,101168.53
2023-04-02T19:12:25.819Z,101165.97
2023-04-02T19:14:59.621Z,101170.47
2023-04-02T19:17:49.725Z,101169.69
2023-04-02T19:20:19.331Z,101167.03
2023-04-02T19:23:11.636Z,101167.03
2023-04-02T19:26:06.128Z,101168.97
2023-04-02T19:28:38.835Z,101179.66
2023-04-02T19:31:49.152Z,101172.63
2023-04-02T19:34:43.830Z,101177.09
2023-04-02T19:37:29.084Z,101181.59
2023-04-02T19:40:06.056Z,101179.88
2023-04-02T19:42:53.993Z,101178.06
2023-04-02T19:45:32.837Z,101180.00
2023-04-02T19:48:06.062Z,101178.41
2023-04-02T19:50:35.800Z,101188.97
2023-04-02T19:53:05.533Z,101189.09
2023-04-02T19:55:35.473Z,101192.75
2023-04-02T19:58:17.644Z,101197.09
2023-04-02T20:00:49.046Z,101184.09
2023-04-02T20:03:18.871Z,101197.09
2023-04-02T20:05:48.731Z,101198.09
2023-04-02T20:08:18.433Z,101194.56
2023-04-02T20:10:49.076Z,101194.03
2023-04-02T20:13:21.981Z,101202.88
2023-04-02T20:15:53.265Z,101207.50
2023-04-02T20:18:23.036Z,101204.06
2023-04-02T20:20:52.809Z,101202.16
2023-04-02T20:23:24.991Z,101214.53
2023-04-02T20:26:00.956Z,101200.69
2023-04-02T20:28:33.226Z,101203.22
2023-04-02T20:31:17.735Z,101214.75
2023-04-02T20:33:48.110Z,101197.47
2023-04-02T20:36:19.028Z,101216.72
2023-04-02T20:38:55.889Z,101210.50
2023-04-02T20:41:28.953Z,101211.47
2023-04-02T20:43:58.990Z,101215.22
2023-04-02T20:46:28.788Z,101211.78
2023-04-02T20:48:58.639Z,101216.28
2023-04-02T20:51:41.458Z,101217.13
2023-04-02T20:54:14.293Z,101208.59
2023-04-02T20:56:46.972Z,101218.97
2023-04-02T20:59:19.853Z,101211.28
2023-04-02T21:01:49.677Z,101223.13
2023-04-02T21:04:19.596Z,101229.06
2023-04-02T21:06:58.292Z,101229.06
2023-04-02T21:09:28.599Z,101222.16
2023-04-02T21:11:58.233Z,101224.03
2023-04-02T21:14:30.671Z,101232.91
2023-04-02T21:17:02.940Z,101219.38
2023-04-02T21:19:34.367Z,101218.59
2023-04-02T21:22:07.711Z,101221.50
2023-04-02T21:24:37.412Z,101220.41
2023-04-02T21:27:07.281Z,101221.25
2023-04-02T21:29:39.960Z,101225.53
2023-04-02T21:32:21.287Z,101228.41
2023-04-02T21:34:51.898Z,101230.56
2023-04-02T21:37:21.519Z,101237.72
2023-04-02T21:39:51.288Z,101236.75
2023-04-02T21:42:20.904Z,101245.31
2023-04-02T21:44:53.258Z,101255.00
2023-04-02T21:47:25.722Z,101246.81
2023-04-02T21:49:55.359Z,101238.03
2023-04-02T21:52:25.114Z,101239.97
2023-04-02T21:54:56.912Z,101251.94
2023-04-02T21:57:26.663Z,101241.47
2023-04-02T21:59:59.407Z,101247.34
2023-04-02T22:02:35.214Z,101245.97
2023-04-02T22:05:05.068Z,101251.94
2023-04-02T22:07:34.736Z,101262.53
2023-04-02T22:10:04.426Z,101263.06
2023-04-02T22:12:34.086Z,101263.78
2023-04-02T22:15:06.897Z,101259.22
2023-04-02T22:17:36.544Z,101257.94
2023-04-02T22:20:06.612Z,101260.53
2023-04-02T22:22:36.360Z,101265.47
2023-04-02T22:25:10.021Z,101253.25
2023-04-02T22:27:39.653Z,101273.88
2023-04-02T22:30:13.780Z,101271.31
2023-04-02T22:32:44.633Z,101268.44
2023-04-02T22:35:17.323Z,101266.28
2023-04-02T22:37:47.289Z,101274.28
2023-04-02T22:40:16.990Z,101259.44
2023-04-02T22:42:47.999Z,101273.84
2023-04-02T22:45:19.893Z,101276.59
2023-04-02T22:47:52.837Z,101279.06
2023-04-02T22:50:26.187Z,101278.00
2023-04-02T22:52:55.936Z,101272.53
2023-04-02T22:55:25.549Z,101277.56
2023-04-02T22:57:55.157Z,101275.19
2023-04-02T23:00:25.717Z,101281.03
2023-04-02T23:02:55.477Z,101267.88
2023-04-02T23:05:25.323Z,101280.50
2023-04-02T23:07:58.153Z,101289.28
2023-04-02T23:10:29.127Z,101290.53
2023-04-02T23:13:02.812Z,101290.06
2023-04-02T23:15:32.601Z,101298.38
2023-04-02T23:18:02.472Z,101284.63
2023-04-02T23:20:35.449Z,101298.56
2023-04-02T23:23:06.526Z,101301.13
2023-04-02T23:25:39.716Z,101304.47
2023-04-02T23:28:09.711Z,101311.59
2023-04-02T23:30:39.340Z,101308.91
2023-04-02T23:33:12.716Z,101316.09
2023-04-02T23:35:45.459Z,101316.28
2023-04-02T23:38:17.717Z,101315.59
2023-04-02T23:40:47.494Z,101311.34
2023-04-02T23:43:17.253Z,101309.56
2023-04-02T23:45:53.288Z,101318.53
2023-04-02T23:48:31.890Z,101318.78
2023-04-02T23:51:04.526Z,101326.16
2023-04-02T23:53:35.479Z,101316.59
2023-04-02T23:56:05.233Z,101326.78
2023-04-02T23:58:34.956Z,101325.00
